createdAt,value
2022-12-03T14:04:41.378Z,65.50
2022-12-03T14:07:10.076Z,65.03
2022-12-03T14:09:44.899Z,65.82
2022-12-03T14:12:35.725Z,63.25
2022-12-03T14:15:10.169Z,65.60
2022-12-03T14:17:41.823Z,61.20
2022-12-03T14:20:14.713Z,65.90
2022-12-03T14:22:46.380Z,65.63
2022-12-03T14:25:19.928Z,69.95
2022-12-03T14:28:21.709Z,66.43
2022-12-03T14:30:54.130Z,70.47
2022-12-03T14:33:23.031Z,73.45
2022-12-03T14:35:56.871Z,71.13
2022-12-03T14:38:25.619Z,72.70
2022-12-03T14:40:54.202Z,74.15
2022-12-03T14:43:22.881Z,68.93
2022-12-03T14:45:52.119Z,80.82
2022-12-03T14:48:20.734Z,69.78
2022-12-03T14:50:49.469Z,79.63
2022-12-03T14:53:25.599Z,67.03
2022-12-03T14:55:58.476Z,73.20
2022-12-03T14:58:27.337Z,48.90
2022-12-03T15:00:55.993Z,68.82
2022-12-03T15:03:24.648Z,66.32
2022-12-03T15:05:53.343Z,69.00
2022-12-03T15:08:25.718Z,64.75
2022-12-03T15:11:33.257Z,65.53
2022-12-03T15:14:08.581Z,64.57
2022-12-03T15:16:37.327Z,63.70
2022-12-03T15:19:06.184Z,67.93
2022-12-03T15:21:37.773Z,57.33
2022-12-03T15:24:11.894Z,63.92
2022-12-03T15:26:41.985Z,55.13
2022-12-03T15:29:15.799Z,57.50
2022-12-03T15:31:49.277Z,63.00
2022-12-03T15:34:22.432Z,58.50
2022-12-03T15:37:09.651Z,57.13
2022-12-03T15:39:48.357Z,52.83
2022-12-03T15:42:49.807Z,53.60
2022-12-03T15:45:18.892Z,51.25
2022-12-03T15:47:47.599Z,51.10
2022-12-03T15:50:26.325Z,49.05
2022-12-03T15:53:00.963Z,47.40
2022-12-03T15:55:53.622Z,47.55
2022-12-03T15:58:22.515Z,52.05
2022-12-03T16:00:54.162Z,50.10
2022-12-03T16:03:23.043Z,49.55
2022-12-03T16:05:59.184Z,51.95
2022-12-03T16:08:28.160Z,44.15
2022-12-03T16:11:10.352Z,42.45
2022-12-03T16:13:42.294Z,48.72
2022-12-03T16:18:42.082Z,44.65
2022-12-03T16:21:35.452Z,44.80
2022-12-03T16:24:09.439Z,54.17
2022-12-03T16:26:46.432Z,51.88
2022-12-03T16:29:15.078Z,46.22
2022-12-03T16:32:01.475Z,51.05
2022-12-03T16:34:36.426Z,52.15
2022-12-03T16:37:10.976Z,55.60
2022-12-03T16:39:40.024Z,54.28
2022-12-03T16:42:17.167Z,62.75
2022-12-03T16:47:58.599Z,62.88
2022-12-03T16:50:29.955Z,64.95
2022-12-03T16:56:09.541Z,70.68
2022-12-03T16:58:55.864Z,74.43
2022-12-03T17:01:44.901Z,66.38
2022-12-03T17:04:13.616Z,73.30
2022-12-03T17:06:42.393Z,69.15
2022-12-03T17:09:11.067Z,72.30
2022-12-03T17:11:39.718Z,69.88
2022-12-03T17:14:10.373Z,79.32
2022-12-03T17:16:39.186Z,69.45
2022-12-03T17:19:08.096Z,75.47
2022-12-03T17:21:44.150Z,70.80
2022-12-03T17:24:27.624Z,75.15
2022-12-03T17:27:00.666Z,74.90
2022-12-03T17:29:34.693Z,71.65
2022-12-03T17:32:03.477Z,70.88
2022-12-03T17:34:32.160Z,74.95
2022-12-03T17:37:00.718Z,74.10
2022-12-03T17:39:29.308Z,66.30
2022-12-03T17:41:57.965Z,70.15
2022-12-03T17:44:26.623Z,75.93
2022-12-03T17:46:57.241Z,74.78
2022-12-03T17:49:31.307Z,72.00
2022-12-03T17:52:00.413Z,72.45
2022-12-03T17:54:43.480Z,68.53
2022-12-03T17:57:17.958Z,72.97
2022-12-03T17:59:46.531Z,77.90
2022-12-03T18:02:17.115Z,71.55
2022-12-03T18:04:45.795Z,72.22
2022-12-03T18:07:14.354Z,77.57
2022-12-03T18:09:42.964Z,74.10
2022-12-03T18:12:11.678Z,77.95
2022-12-03T18:14:40.291Z,73.07
2022-12-03T18:17:09.020Z,70.90
2022-12-03T18:19:39.515Z,72.45
2022-12-03T18:22:08.421Z,75.30
2022-12-03T18:24:37.268Z,74.50
2022-12-03T18:27:06.082Z,76.93
2022-12-03T18:29:34.724Z,73.38
2022-12-03T18:32:03.572Z,75.15
2022-12-03T18:34:32.361Z,76.57
2022-12-03T18:37:03.477Z,76.45
2022-12-03T18:39:36.146Z,73.53
2022-12-03T18:42:16.050Z,82.63
2022-12-03T18:44:49.649Z,79.97
2022-12-03T18:47:21.097Z,78.88
2022-12-03T18:49:50.212Z,80.50
2022-12-03T18:52:24.238Z,81.00
2022-12-03T18:54:53.785Z,77.28
2022-12-03T18:57:22.419Z,84.32
2022-12-03T18:59:51.056Z,83.65
2022-12-03T19:05:12.031Z,75.65
2022-12-03T19:07:42.689Z,77.32
2022-12-03T19:10:13.631Z,75.13
2022-12-03T19:12:57.362Z,72.60
2022-12-03T19:15:29.079Z,79.15
2022-12-03T19:17:57.759Z,79.13
2022-12-03T19:20:29.224Z,80.90
2022-12-03T19:23:01.765Z,77.25
2022-12-03T19:25:33.202Z,75.85
2022-12-03T19:28:04.652Z,78.28
2022-12-03T19:30:33.332Z,77.97
2022-12-03T19:33:04.259Z,73.22
2022-12-03T19:35:33.103Z,74.78
2022-12-03T19:38:04.908Z,69.78
2022-12-03T19:40:33.564Z,74.85
2022-12-03T19:43:05.255Z,75.95
2022-12-03T19:45:33.890Z,67.05
2022-12-03T19:48:02.630Z,74.32
2022-12-03T19:50:32.041Z,75.45
2022-12-03T19:53:00.676Z,70.18
2022-12-03T19:55:31.494Z,70.63
2022-12-03T19:58:02.899Z,72.82
2022-12-03T20:00:35.792Z,69.93
2022-12-03T20:03:07.664Z,68.38
2022-12-03T20:05:44.689Z,67.63
2022-12-03T20:08:13.347Z,73.75
2022-12-03T20:10:46.767Z,71.82
2022-12-03T20:13:21.558Z,69.72
2022-12-03T20:15:52.779Z,65.65
2022-12-03T20:18:21.508Z,52.40
2022-12-03T20:20:52.243Z,70.90
2022-12-03T20:23:20.960Z,67.93
2022-12-03T20:25:57.798Z,68.70
2022-12-03T20:28:27.952Z,69.00
2022-12-03T20:31:06.561Z,63.45
2022-12-03T20:33:38.174Z,63.05
2022-12-03T20:36:08.163Z,68.05
2022-12-03T20:38:37.229Z,65.97
2022-12-03T20:41:14.571Z,70.25
2022-12-03T20:43:43.751Z,67.47
2022-12-03T20:46:15.203Z,64.90
2022-12-03T20:48:47.498Z,66.55
2022-12-03T20:51:22.627Z,67.43
2022-12-03T20:53:54.161Z,64.95
2022-12-03T20:56:46.798Z,67.18
2022-12-03T20:59:19.197Z,65.47
2022-12-03T21:01:49.401Z,74.43
2022-12-03T21:04:18.742Z,70.40
2022-12-03T21:06:47.980Z,66.68
2022-12-03T21:09:19.473Z,63.40
2022-12-03T21:11:53.075Z,64.32
2022-12-03T21:14:21.746Z,62.92
2022-12-03T21:17:08.889Z,66.75
2022-12-03T21:19:38.999Z,63.30
2022-12-03T21:22:08.578Z,70.50
2022-12-03T21:24:37.708Z,65.05
2022-12-03T21:27:14.617Z,65.03
2022-12-03T21:29:46.976Z,64.90
2022-12-03T21:32:15.743Z,63.60
2022-12-03T21:34:44.495Z,63.42
2022-12-03T21:37:15.562Z,62.90
2022-12-03T21:39:44.160Z,67.30
2022-12-03T21:42:19.349Z,63.40
2022-12-03T21:45:04.110Z,63.47
2022-12-03T21:47:37.213Z,67.00
2022-12-03T21:50:10.456Z,65.63
2022-12-03T21:52:39.279Z,66.28
2022-12-03T21:55:09.138Z,61.22
2022-12-03T21:57:42.925Z,66.53
2022-12-03T22:00:13.682Z,62.65
2022-12-03T22:02:42.538Z,61.90
2022-12-03T22:05:12.852Z,64.18
2022-12-03T22:07:42.401Z,56.55
2022-12-03T22:10:13.321Z,64.28
2022-12-03T22:12:44.143Z,61.00
2022-12-03T22:15:18.726Z,64.97
2022-12-03T22:17:48.921Z,63.13
2022-12-03T22:20:18.922Z,65.88
2022-12-03T22:22:47.736Z,62.53
2022-12-03T22:25:16.651Z,63.65
2022-12-03T22:27:48.680Z,63.88
2022-12-03T22:30:17.692Z,64.07
2022-12-03T22:32:46.619Z,66.68
2022-12-03T22:35:15.474Z,64.53
2022-12-03T22:37:44.123Z,66.50
2022-12-03T22:40:13.756Z,64.07
2022-12-03T22:42:47.760Z,63.30
2022-12-03T22:45:21.389Z,59.83
2022-12-03T22:47:50.219Z,64.35
2022-12-03T22:50:19.278Z,64.03
2022-12-03T22:52:47.883Z,62.70
2022-12-03T22:55:16.862Z,67.10
2022-12-03T22:57:45.459Z,68.63
2022-12-03T23:00:17.551Z,65.45
2022-12-03T23:02:48.215Z,63.92
2022-12-03T23:05:17.222Z,63.85
2022-12-03T23:07:45.935Z,64.63
2022-12-03T23:10:14.637Z,62.65
2022-12-03T23:12:43.464Z,66.32
2022-12-03T23:15:13.037Z,63.33
2022-12-03T23:17:42.630Z,68.22
2022-12-03T23:20:15.084Z,64.10
2022-12-03T23:22:43.768Z,64.43
2022-12-03T23:25:13.665Z,66.53
2022-12-03T23:27:42.511Z,67.53
2022-12-03T23:30:14.104Z,71.68
2022-12-03T23:32:43.768Z,66.40
2022-12-03T23:35:14.631Z,65.75
2022-12-03T23:37:45.228Z,48.75
2022-12-03T23:40:15.779Z,62.33
2022-12-03T23:42:44.492Z,66.05
2022-12-03T23:45:13.438Z,69.80
2022-12-03T23:47:42.178Z,65.60
2022-12-03T23:50:13.942Z,62.22
2022-12-03T23:52:42.700Z,66.80
2022-12-03T23:55:12.087Z,66.65
2022-12-03T23:57:40.775Z,69.22
